createdAt,value
2017-10-27T00:02:13.235Z,13.30
2017-10-27T00:04:40.669Z,13.20
2017-10-27T00:07:08.867Z,13.20
2017-10-27T00:09:36.300Z,13.20
2017-10-27T00:12:06.524Z,13.20
2017-10-27T00:14:34.721Z,13.20
2017-10-27T00:17:02.153Z,13.20
2017-10-27T00:19:30.348Z,13.20
2017-10-27T00:21:58.544Z,13.20
2017-10-27T00:24:25.967Z,13.20
2017-10-27T00:26:54.170Z,13.20
2017-10-27T00:29:21.600Z,13.20
2017-10-27T00:31:49.797Z,13.20
2017-10-27T00:34:17.226Z,13.20
2017-10-27T00:36:45.424Z,13.30
2017-10-27T00:39:13.455Z,13.20
2017-10-27T00:41:40.887Z,13.30
2017-10-27T00:44:08.321Z,13.30
2017-10-27T00:46:35.761Z,13.30
2017-10-27T00:49:03.204Z,13.20
2017-10-27T00:51:31.427Z,13.20
2017-10-27T00:53:58.861Z,13.20
2017-10-27T00:56:26.288Z,13.20
2017-10-27T00:58:54.498Z,13.10
2017-10-27T01:01:21.932Z,13.10
2017-10-27T01:03:53.057Z,13.20
2017-10-27T01:06:21.257Z,13.20
2017-10-27T01:08:48.693Z,13.20
2017-10-27T01:11:16.888Z,13.20
2017-10-27T01:13:44.332Z,13.20
2017-10-27T01:16:13.615Z,13.30
2017-10-27T01:18:41.053Z,13.30
2017-10-27T01:21:08.492Z,13.30
2017-10-27T01:23:35.987Z,13.30
2017-10-27T01:26:04.192Z,13.30
2017-10-27T01:28:33.663Z,13.30
2017-10-27T01:31:01.936Z,13.30
2017-10-27T01:33:29.378Z,13.30
2017-10-27T01:35:56.809Z,13.30
2017-10-27T01:38:24.239Z,13.30
2017-10-27T01:40:51.667Z,13.30
2017-10-27T01:43:23.724Z,13.40
2017-10-27T01:45:51.153Z,13.30
2017-10-27T01:48:18.592Z,13.40
2017-10-27T01:50:46.024Z,13.40
2017-10-27T01:53:13.462Z,13.50
2017-10-27T01:55:41.660Z,13.50
2017-10-27T01:58:09.101Z,13.50
2017-10-27T02:00:38.028Z,13.50
2017-10-27T02:03:05.469Z,13.50
2017-10-27T02:05:32.900Z,13.50
2017-10-27T02:08:01.110Z,13.50
2017-10-27T02:10:29.103Z,13.50
2017-10-27T02:12:56.535Z,13.50
2017-10-27T02:15:23.981Z,13.50
2017-10-27T02:17:51.411Z,13.50
2017-10-27T02:20:19.616Z,13.50
2017-10-27T02:22:48.058Z,13.50
2017-10-27T02:25:15.501Z,13.40
2017-10-27T02:27:42.930Z,13.50
2017-10-27T02:30:10.380Z,13.50
2017-10-27T02:32:37.801Z,13.40
2017-10-27T02:35:06.012Z,13.50
2017-10-27T02:37:33.461Z,13.40
2017-10-27T02:40:00.900Z,13.40
2017-10-27T02:42:29.098Z,13.30
2017-10-27T02:44:56.540Z,13.30
2017-10-27T02:47:23.988Z,13.30
2017-10-27T02:49:52.169Z,13.20
2017-10-27T02:52:19.604Z,13.20
2017-10-27T02:54:47.813Z,13.20
2017-10-27T02:57:15.245Z,13.20
2017-10-27T02:59:42.685Z,13.20
2017-10-27T03:02:10.880Z,13.10
2017-10-27T03:04:38.341Z,13.00
2017-10-27T03:07:05.765Z,13.10
2017-10-27T03:09:33.200Z,13.10
2017-10-27T03:12:00.638Z,13.10
2017-10-27T03:14:28.168Z,13.10
2017-10-27T03:16:55.596Z,13.10
2017-10-27T03:19:23.058Z,13.20
2017-10-27T03:21:50.484Z,13.20
2017-10-27T03:24:17.925Z,13.10
2017-10-27T03:26:45.357Z,13.20
2017-10-27T03:29:12.808Z,13.10
2017-10-27T03:31:40.236Z,13.10
2017-10-27T03:34:07.667Z,13.10
2017-10-27T03:36:35.160Z,13.10
2017-10-27T03:39:03.363Z,13.10
2017-10-27T03:41:30.793Z,13.00
2017-10-27T03:43:58.989Z,13.10
2017-10-27T03:46:26.436Z,13.00
2017-10-27T03:48:54.638Z,13.10
2017-10-27T03:51:22.076Z,13.10
2017-10-27T03:53:49.500Z,13.10
2017-10-27T03:56:16.937Z,13.20
2017-10-27T03:58:44.373Z,13.20
2017-10-27T04:01:11.808Z,13.20
2017-10-27T04:03:39.238Z,13.10
2017-10-27T04:06:07.433Z,13.20
2017-10-27T04:08:34.857Z,13.10
2017-10-27T04:11:02.305Z,13.10
2017-10-27T04:13:29.728Z,13.10
2017-10-27T04:15:57.165Z,13.00
2017-10-27T04:18:24.585Z,13.00
2017-10-27T04:20:52.061Z,13.00
2017-10-27T04:23:22.261Z,12.80
2017-10-27T04:25:49.720Z,12.80
2017-10-27T04:28:17.147Z,12.70
2017-10-27T04:30:45.504Z,12.80
2017-10-27T04:33:12.952Z,12.80
2017-10-27T04:35:40.396Z,12.90
2017-10-27T04:38:07.823Z,12.80
2017-10-27T04:40:35.256Z,12.70
2017-10-27T04:43:02.689Z,12.70
2017-10-27T04:45:30.129Z,12.70
2017-10-27T04:47:57.566Z,12.70
2017-10-27T04:50:25.765Z,12.60
2017-10-27T04:52:53.281Z,12.60
2017-10-27T04:55:20.717Z,12.60
2017-10-27T04:57:48.152Z,12.60
2017-10-27T05:00:15.765Z,12.60
2017-10-27T05:02:43.961Z,12.40
2017-10-27T05:05:11.401Z,12.50
2017-10-27T05:07:39.905Z,12.30
2017-10-27T05:10:10.808Z,12.30
2017-10-27T05:12:38.241Z,12.30
2017-10-27T05:15:05.681Z,12.30
2017-10-27T05:17:38.874Z,12.30
2017-10-27T05:20:12.077Z,12.30
2017-10-27T05:22:45.097Z,12.30
2017-10-27T05:25:12.533Z,12.30
2017-10-27T05:27:40.009Z,12.30
2017-10-27T05:30:07.441Z,12.30
2017-10-27T05:32:34.881Z,12.30
2017-10-27T05:35:02.310Z,12.20
2017-10-27T05:37:29.745Z,12.20
2017-10-27T05:39:57.929Z,12.30
2017-10-27T05:42:26.152Z,12.30
2017-10-27T05:44:53.591Z,12.30
2017-10-27T05:47:21.029Z,12.30
2017-10-27T05:49:48.452Z,12.30
2017-10-27T05:52:15.890Z,12.30
2017-10-27T05:54:43.325Z,12.30
2017-10-27T05:57:10.786Z,12.40
2017-10-27T05:59:38.200Z,12.30
2017-10-27T06:02:06.408Z,12.40
2017-10-27T06:04:33.833Z,12.30
2017-10-27T06:07:02.040Z,12.30
2017-10-27T06:09:29.464Z,12.30
2017-10-27T06:11:57.667Z,12.50
2017-10-27T06:14:25.097Z,12.50
2017-10-27T06:16:53.300Z,12.60
2017-10-27T06:19:20.725Z,12.60
2017-10-27T06:21:48.937Z,12.60
2017-10-27T06:24:16.367Z,12.70
2017-10-27T06:26:43.808Z,12.70
2017-10-27T06:29:12.001Z,12.50
2017-10-27T06:31:39.437Z,12.50
2017-10-27T06:34:07.643Z,12.50
2017-10-27T06:36:35.074Z,12.50
2017-10-27T06:39:03.269Z,12.50
2017-10-27T06:41:30.701Z,12.40
2017-10-27T06:43:58.911Z,12.50
2017-10-27T06:46:26.349Z,12.50
2017-10-27T06:48:53.781Z,12.50
2017-10-27T06:51:21.980Z,12.50
2017-10-27T06:53:49.413Z,12.50
2017-10-27T06:56:17.740Z,12.40
2017-10-27T06:58:45.173Z,12.40
2017-10-27T07:01:12.607Z,12.50
2017-10-27T07:03:40.806Z,12.50
2017-10-27T07:06:08.240Z,12.50
2017-10-27T07:08:36.451Z,12.50
2017-10-27T07:11:03.884Z,12.50
2017-10-27T07:13:31.321Z,12.50
2017-10-27T07:15:59.525Z,12.70
2017-10-27T07:18:26.957Z,12.60
2017-10-27T07:20:55.222Z,12.80
2017-10-27T07:23:22.657Z,12.70
2017-10-27T07:25:50.093Z,12.80
2017-10-27T07:28:17.526Z,12.90
2017-10-27T07:30:44.970Z,12.90
2017-10-27T07:33:13.175Z,13.30
2017-10-27T07:35:40.598Z,13.20
2017-10-27T07:38:08.803Z,13.50
2017-10-27T07:40:36.232Z,13.50
2017-10-27T07:43:04.434Z,13.70
2017-10-27T07:45:31.869Z,13.70
2017-10-27T07:48:00.069Z,13.80
2017-10-27T07:50:27.501Z,13.80
2017-10-27T07:52:54.936Z,13.80
2017-10-27T07:55:23.133Z,13.80
2017-10-27T07:57:50.579Z,13.80
2017-10-27T08:00:18.772Z,14.00
2017-10-27T08:02:47.225Z,14.00
2017-10-27T08:05:15.421Z,14.00
2017-10-27T08:07:42.856Z,14.00
2017-10-27T08:10:11.052Z,14.10
2017-10-27T08:12:38.492Z,14.10
2017-10-27T08:15:06.693Z,14.40
2017-10-27T08:17:34.133Z,14.40
2017-10-27T08:20:02.335Z,15.00
2017-10-27T08:22:30.777Z,15.10
2017-10-27T08:24:58.969Z,15.10
2017-10-27T08:27:26.401Z,15.10
2017-10-27T08:29:54.593Z,14.80
2017-10-27T08:32:22.037Z,14.80
2017-10-27T08:34:50.233Z,14.50
2017-10-27T08:37:17.665Z,14.50
2017-10-27T08:39:45.933Z,14.30
2017-10-27T08:42:25.357Z,14.30
2017-10-27T08:44:52.792Z,14.20
2017-10-27T08:47:20.312Z,14.20
2017-10-27T08:49:47.743Z,14.20
2017-10-27T08:52:15.205Z,14.20
2017-10-27T08:54:42.633Z,14.20
2017-10-27T08:57:10.073Z,14.20
2017-10-27T08:59:38.593Z,14.20
2017-10-27T09:02:06.032Z,14.20
2017-10-27T09:04:33.457Z,14.20
2017-10-27T09:07:00.889Z,14.30
2017-10-27T09:09:28.329Z,14.40
2017-10-27T09:11:56.529Z,14.40
2017-10-27T09:14:25.538Z,14.40
2017-10-27T09:16:56.126Z,14.40
2017-10-27T09:19:23.559Z,14.50
2017-10-27T09:21:50.987Z,14.60
2017-10-27T09:24:18.427Z,14.70
2017-10-27T09:26:45.854Z,14.80
2017-10-27T09:29:14.048Z,14.80
2017-10-27T09:31:41.484Z,14.80
2017-10-27T09:34:09.684Z,14.60
2017-10-27T09:36:37.115Z,14.60
2017-10-27T09:39:05.307Z,17.00
2017-10-27T09:41:33.557Z,17.80
2017-10-27T09:44:00.991Z,17.80
2017-10-27T09:46:28.425Z,18.70
2017-10-27T09:48:55.862Z,19.70
2017-10-27T09:51:23.388Z,20.90
2017-10-27T09:53:50.816Z,21.70
2017-10-27T09:56:18.568Z,21.70
2017-10-27T09:58:46.069Z,22.10
2017-10-27T10:01:14.290Z,22.70
2017-10-27T10:03:41.722Z,22.70
2017-10-27T10:06:09.151Z,22.60
2017-10-27T10:08:36.578Z,22.70
2017-10-27T10:11:03.996Z,23.30
2017-10-27T10:13:31.436Z,23.90
2017-10-27T10:15:59.625Z,24.00
2017-10-27T10:18:27.061Z,24.00
2017-10-27T10:20:55.256Z,24.10
2017-10-27T10:23:22.734Z,24.10
2017-10-27T10:25:50.165Z,23.00
2017-10-27T10:28:17.629Z,22.60
2017-10-27T10:30:45.818Z,23.70
2017-10-27T10:33:13.242Z,23.60
2017-10-27T10:35:41.438Z,23.90
2017-10-27T10:38:08.881Z,23.90
2017-10-27T10:40:38.053Z,23.30
2017-10-27T10:43:05.490Z,23.20
2017-10-27T10:45:32.921Z,21.80
2017-10-27T10:48:00.350Z,21.20
2017-10-27T10:50:28.544Z,20.00
2017-10-27T10:52:55.972Z,20.00
2017-10-27T10:55:24.228Z,20.20
2017-10-27T10:57:51.668Z,20.20
2017-10-27T11:00:19.093Z,20.00
2017-10-27T11:02:46.532Z,20.30
2017-10-27T11:05:13.961Z,20.40
2017-10-27T11:07:41.393Z,20.20
2017-10-27T11:10:08.824Z,19.70
2017-10-27T11:12:36.253Z,19.30
2017-10-27T11:15:04.455Z,18.40
2017-10-27T11:17:31.893Z,18.30
2017-10-27T11:19:59.320Z,17.80
2017-10-27T11:22:27.525Z,17.30
2017-10-27T11:24:54.948Z,17.20
2017-10-27T11:27:22.381Z,17.10
2017-10-27T11:29:49.841Z,17.00
2017-10-27T11:32:20.392Z,16.70
2017-10-27T11:34:47.826Z,16.50
2017-10-27T11:37:15.297Z,16.50
2017-10-27T11:39:42.717Z,16.50
2017-10-27T11:42:10.159Z,16.40
2017-10-27T11:44:37.578Z,16.50
2017-10-27T11:47:05.010Z,16.40
2017-10-27T11:49:32.449Z,16.30
2017-10-27T11:51:59.872Z,16.10
2017-10-27T11:54:28.064Z,15.90
2017-10-27T11:56:55.505Z,15.90
2017-10-27T11:59:22.937Z,15.90
2017-10-27T12:01:51.158Z,15.60
2017-10-27T12:04:18.586Z,15.60
2017-10-27T12:06:46.801Z,15.30
2017-10-27T12:09:14.234Z,15.30
2017-10-27T12:11:41.660Z,15.30
2017-10-27T12:14:09.932Z,15.30
2017-10-27T12:16:38.134Z,15.30
2017-10-27T12:19:05.571Z,15.30
2017-10-27T12:21:33.764Z,15.20
2017-10-27T12:24:01.197Z,15.20
2017-10-27T12:26:29.389Z,15.20
2017-10-27T12:28:56.829Z,15.20
2017-10-27T12:31:25.019Z,15.20
2017-10-27T12:33:53.222Z,15.20
2017-10-27T12:36:20.644Z,15.20
2017-10-27T12:38:48.846Z,15.10
2017-10-27T12:41:16.272Z,15.10
2017-10-27T12:43:44.482Z,15.10
2017-10-27T12:46:13.832Z,15.10
2017-10-27T12:48:41.269Z,15.10
2017-10-27T12:51:08.693Z,15.20
2017-10-27T12:53:36.139Z,15.10
2017-10-27T12:56:03.565Z,15.00
2017-10-27T12:58:31.766Z,14.90
2017-10-27T13:00:59.192Z,14.80
2017-10-27T13:03:26.632Z,14.90
2017-10-27T13:05:54.062Z,14.90
2017-10-27T13:08:21.497Z,14.90
2017-10-27T13:10:48.926Z,15.00
2017-10-27T13:13:16.349Z,15.00
2017-10-27T13:15:43.796Z,15.00
2017-10-27T13:18:11.216Z,15.00
2017-10-27T13:20:38.641Z,15.00
2017-10-27T13:23:06.082Z,15.00
2017-10-27T13:25:33.509Z,15.00
2017-10-27T13:28:00.948Z,15.00
2017-10-27T13:30:28.372Z,15.00
2017-10-27T13:32:56.578Z,14.90
2017-10-27T13:35:24.009Z,14.90
2017-10-27T13:37:52.212Z,14.80
2017-10-27T13:40:19.649Z,14.80
2017-10-27T13:42:47.855Z,14.80
2017-10-27T13:45:15.284Z,14.80
2017-10-27T13:47:43.493Z,14.80
2017-10-27T13:50:10.924Z,14.80
2017-10-27T13:52:38.356Z,14.90
2017-10-27T13:55:06.552Z,14.70
2017-10-27T13:57:33.984Z,14.70
2017-10-27T14:00:01.443Z,14.70
2017-10-27T14:02:29.640Z,14.50
2017-10-27T14:04:57.064Z,14.50
2017-10-27T14:07:24.503Z,14.50
2017-10-27T14:09:51.933Z,14.40
2017-10-27T14:12:19.368Z,14.40
2017-10-27T14:14:46.797Z,14.40
2017-10-27T14:17:14.229Z,14.40
2017-10-27T14:19:41.662Z,14.40
2017-10-27T14:22:09.081Z,14.40
2017-10-27T14:24:37.285Z,14.30
2017-10-27T14:27:04.717Z,14.30
2017-10-27T14:29:32.924Z,14.20
2017-10-27T14:32:00.343Z,14.20
2017-10-27T14:34:28.538Z,14.20
2017-10-27T14:36:55.967Z,14.20
2017-10-27T14:39:24.172Z,14.30
2017-10-27T14:41:51.595Z,14.20
2017-10-27T14:44:19.797Z,14.20
2017-10-27T14:46:47.224Z,14.20
2017-10-27T14:49:15.425Z,14.30
2017-10-27T14:51:43.772Z,14.30
2017-10-27T14:54:11.204Z,14.30
2017-10-27T14:56:38.636Z,14.30
2017-10-27T14:59:06.075Z,14.30
2017-10-27T15:01:33.496Z,14.30
2017-10-27T15:04:00.934Z,14.30
2017-10-27T15:06:28.362Z,14.30
2017-10-27T15:08:55.803Z,14.30
2017-10-27T15:11:23.229Z,14.40
2017-10-27T15:13:50.664Z,14.40
2017-10-27T15:16:18.093Z,14.30
2017-10-27T15:18:45.529Z,14.30
2017-10-27T15:21:12.952Z,14.30
2017-10-27T15:23:40.385Z,14.20
2017-10-27T15:26:07.813Z,14.20
2017-10-27T15:28:35.255Z,14.00
2017-10-27T15:31:02.686Z,14.00
2017-10-27T15:33:30.885Z,14.00
2017-10-27T15:35:58.316Z,14.00
2017-10-27T15:38:26.514Z,13.80
2017-10-27T15:40:53.941Z,13.80
2017-10-27T15:43:21.405Z,13.70
2017-10-27T15:45:50.404Z,13.60
2017-10-27T15:48:18.604Z,13.60
2017-10-27T15:50:46.045Z,13.60
2017-10-27T15:53:13.480Z,13.50
2017-10-27T15:55:41.685Z,13.50
2017-10-27T15:58:09.124Z,13.50
2017-10-27T16:00:37.318Z,13.50
2017-10-27T16:03:04.751Z,13.50
2017-10-27T16:05:32.945Z,13.50
2017-10-27T16:08:00.377Z,13.50
2017-10-27T16:10:28.573Z,13.60
2017-10-27T16:12:55.996Z,13.60
2017-10-27T16:15:23.436Z,13.60
2017-10-27T16:17:50.874Z,13.50
2017-10-27T16:20:18.303Z,13.40
2017-10-27T16:22:45.733Z,13.40
2017-10-27T16:25:13.167Z,13.30
2017-10-27T16:27:40.596Z,13.20
2017-10-27T16:30:08.039Z,13.10
2017-10-27T16:32:35.463Z,13.20
2017-10-27T16:35:02.890Z,13.00
2017-10-27T16:37:30.318Z,13.00
2017-10-27T16:39:57.758Z,13.00
2017-10-27T16:42:25.180Z,12.90
2017-10-27T16:44:52.620Z,12.80
2017-10-27T16:47:20.058Z,12.80
2017-10-27T16:49:47.501Z,12.70
2017-10-27T16:52:14.932Z,12.70
2017-10-27T16:54:43.134Z,12.50
2017-10-27T16:57:10.554Z,12.50
2017-10-27T16:59:38.758Z,12.50
2017-10-27T17:02:06.177Z,12.40
2017-10-27T17:04:34.377Z,12.40
2017-10-27T17:07:01.798Z,12.40
2017-10-27T17:09:29.229Z,12.40
2017-10-27T17:11:56.713Z,12.40
2017-10-27T17:14:24.140Z,12.40
2017-10-27T17:16:51.575Z,12.40
2017-10-27T17:19:19.006Z,12.30
2017-10-27T17:21:47.196Z,12.30
2017-10-27T17:24:14.629Z,12.30
2017-10-27T17:26:42.833Z,12.30
2017-10-27T17:29:10.271Z,12.30
2017-10-27T17:31:37.697Z,12.20
2017-10-27T17:34:05.144Z,12.20
2017-10-27T17:36:32.574Z,12.20
2017-10-27T17:39:00.014Z,12.10
2017-10-27T17:41:27.431Z,12.10
2017-10-27T17:43:54.863Z,12.00
2017-10-27T17:46:22.297Z,12.00
2017-10-27T17:48:49.806Z,12.00
2017-10-27T17:51:18.008Z,12.00
2017-10-27T17:53:45.436Z,11.90
2017-10-27T17:56:13.636Z,11.90
2017-10-27T17:58:41.064Z,12.00
2017-10-27T18:01:08.500Z,11.90
2017-10-27T18:03:35.923Z,11.90
2017-10-27T18:06:03.366Z,11.90
2017-10-27T18:08:30.784Z,11.90
2017-10-27T18:10:58.220Z,11.70
2017-10-27T18:13:25.661Z,11.70
2017-10-27T18:15:53.101Z,11.60
2017-10-27T18:18:20.544Z,11.60
2017-10-27T18:20:48.746Z,11.50
2017-10-27T18:23:16.177Z,11.50
2017-10-27T18:25:43.708Z,11.50
2017-10-27T18:28:11.909Z,11.40
2017-10-27T18:30:39.356Z,11.40
2017-10-27T18:33:07.569Z,11.30
2017-10-27T18:35:34.996Z,11.30
2017-10-27T18:38:02.430Z,11.20
2017-10-27T18:40:30.621Z,11.10
2017-10-27T18:42:58.823Z,11.10
2017-10-27T18:45:26.252Z,11.00
2017-10-27T18:47:54.462Z,11.00
2017-10-27T18:50:21.893Z,11.00
2017-10-27T18:52:49.429Z,10.90
2017-10-27T18:55:17.617Z,10.80
2017-10-27T18:57:45.873Z,10.90
2017-10-27T19:00:14.064Z,10.80
2017-10-27T19:02:42.325Z,10.70
2017-10-27T19:05:10.531Z,10.60
2017-10-27T19:07:38.989Z,10.60
2017-10-27T19:10:07.185Z,10.50
2017-10-27T19:12:34.613Z,10.50
2017-10-27T19:15:02.825Z,10.40
2017-10-27T19:17:30.341Z,10.40
2017-10-27T19:19:57.853Z,10.30
2017-10-27T19:22:25.368Z,10.20
2017-10-27T19:24:52.787Z,10.10
2017-10-27T19:27:20.285Z,10.00
2017-10-27T19:29:48.482Z,9.90
2017-10-27T19:32:15.912Z,9.80
2017-10-27T19:34:44.172Z,9.70
2017-10-27T19:37:11.609Z,9.70
2017-10-27T19:39:39.035Z,9.80
2017-10-27T19:42:06.469Z,9.70
2017-10-27T19:44:34.654Z,9.70
2017-10-27T19:47:02.104Z,9.70
2017-10-27T19:49:30.302Z,9.70
2017-10-27T19:51:58.740Z,9.70
2017-10-27T19:54:26.941Z,9.60
2017-10-27T19:56:54.365Z,9.60
2017-10-27T19:59:21.795Z,9.60
2017-10-27T20:01:49.273Z,9.50
2017-10-27T20:04:16.713Z,9.50
2017-10-27T20:06:44.192Z,9.60
2017-10-27T20:09:11.653Z,9.50
2017-10-27T20:11:39.065Z,9.60
2017-10-27T20:14:06.499Z,9.50
2017-10-27T20:16:33.930Z,9.60
2017-10-27T20:19:02.149Z,9.50
2017-10-27T20:21:30.740Z,9.50
2017-10-27T20:23:58.387Z,9.50
2017-10-27T20:26:29.471Z,9.50
2017-10-27T20:29:01.795Z,9.50
2017-10-27T20:31:31.478Z,9.50
2017-10-27T20:33:59.684Z,9.50
2017-10-27T20:36:27.154Z,9.50
2017-10-27T20:38:54.584Z,9.40
2017-10-27T20:41:22.004Z,9.40
2017-10-27T20:43:49.716Z,9.50
2017-10-27T20:46:17.734Z,9.40
2017-10-27T20:48:46.352Z,9.50
2017-10-27T20:51:15.005Z,9.40
2017-10-27T20:53:43.477Z,9.40
2017-10-27T20:56:12.194Z,9.40
2017-10-27T20:58:44.041Z,9.30
2017-10-27T21:01:11.765Z,9.30
2017-10-27T21:03:39.788Z,9.20
2017-10-27T21:06:09.861Z,9.20
2017-10-27T21:08:40.438Z,9.20
2017-10-27T21:11:08.689Z,9.10
2017-10-27T21:13:36.749Z,9.10
2017-10-27T21:16:04.253Z,9.00
2017-10-27T21:18:35.529Z,8.90
2017-10-27T21:21:03.595Z,8.90
2017-10-27T21:23:31.016Z,8.80
2017-10-27T21:25:59.528Z,8.70
2017-10-27T21:28:26.954Z,8.70
2017-10-27T21:30:55.654Z,8.70
2017-10-27T21:33:24.046Z,8.70
2017-10-27T21:35:51.574Z,8.70
2017-10-27T21:38:19.172Z,8.80
2017-10-27T21:40:46.707Z,8.80
2017-10-27T21:43:14.914Z,8.80
2017-10-27T21:45:42.528Z,8.70
2017-10-27T21:48:09.947Z,8.80
2017-10-27T21:50:37.397Z,8.90
2017-10-27T21:53:04.839Z,8.90
2017-10-27T21:55:32.332Z,8.90
2017-10-27T21:57:59.778Z,8.90
2017-10-27T22:00:27.213Z,8.90
2017-10-27T22:02:54.640Z,8.80
2017-10-27T22:05:22.101Z,8.80
2017-10-27T22:07:49.537Z,8.90
2017-10-27T22:10:17.763Z,9.00
2017-10-27T22:12:45.217Z,9.00
2017-10-27T22:15:12.673Z,9.00
2017-10-27T22:17:40.085Z,9.10
2017-10-27T22:20:08.572Z,9.10
2017-10-27T22:22:36.762Z,9.00
2017-10-27T22:25:04.188Z,9.00
2017-10-27T22:27:32.439Z,9.10
2017-10-27T22:29:59.862Z,9.10
2017-10-27T22:32:27.305Z,9.10
2017-10-27T22:34:54.720Z,9.20
2017-10-27T22:37:22.152Z,9.30
2017-10-27T22:39:49.578Z,9.30
2017-10-27T22:42:17.013Z,9.30
2017-10-27T22:44:45.225Z,9.30
2017-10-27T22:47:12.659Z,9.30
2017-10-27T22:49:40.084Z,9.30
2017-10-27T22:52:07.509Z,9.20
2017-10-27T22:54:34.957Z,9.20
2017-10-27T22:57:02.378Z,9.20
2017-10-27T22:59:29.808Z,9.30
2017-10-27T23:01:57.228Z,9.30
2017-10-27T23:04:24.653Z,9.20
2017-10-27T23:06:52.084Z,9.20
2017-10-27T23:09:20.272Z,9.30
2017-10-27T23:11:48.464Z,9.40
2017-10-27T23:14:15.895Z,9.30
2017-10-27T23:16:44.081Z,9.40
2017-10-27T23:19:12.291Z,9.50
2017-10-27T23:21:39.709Z,9.40
2017-10-27T23:24:07.914Z,9.50
2017-10-27T23:26:35.342Z,9.50
2017-10-27T23:29:03.548Z,9.30
2017-10-27T23:31:30.995Z,9.30
2017-10-27T23:33:58.518Z,9.40
2017-10-27T23:36:26.735Z,9.40
2017-10-27T23:38:54.173Z,9.40
2017-10-27T23:41:21.599Z,9.40
2017-10-27T23:43:49.053Z,9.40
2017-10-27T23:46:16.470Z,9.40
2017-10-27T23:48:43.904Z,9.30
2017-10-27T23:51:11.332Z,9.30
2017-10-27T23:53:39.534Z,9.20
2017-10-27T23:56:06.952Z,9.20
2017-10-27T23:58:34.385Z,9.10
